East Charleston, Vermont
Current Conditions -  °F | °C
As of 9:55 PM on Sunday 23 Nov 2014 (Local Time) from KEFK Reporting Station
Overcast Overcast  
Wind Chill: 37°   Ceiling: 6000
Heat Index: 40°   Visibility: 10mi
Dew Point: 38°   Wind: 5mph
Humidity: 90%   Direction: 200°SSW
Pressure: 30.03"   Gusts: NA
Location:  44.84°N, 71.99°W
Report Text: KEFK 240255Z AUTO 20004KT 10SM OVC060 05/03 A3003 RMK AO2 T00470032
Loading
Personal Weather Stations






























Interactive Weather Map New forecast layout! Learn more

10-Day Weather Forecast

Advertisements
Track Severe Weather on mobile